sensor_id;sensor_type;location;lat;lon;timestamp;temperature;humidity
19945;DHT22;10134;50.952;6.930;2023-04-07T00:01:19;9.30;99.90
19945;DHT22;10134;50.952;6.930;2023-04-07T00:03:47;9.30;99.90
19945;DHT22;10134;50.952;6.930;2023-04-07T00:06:15;9.30;99.90
19945;DHT22;10134;50.952;6.930;2023-04-07T00:08:42;9.30;99.90
19945;DHT22;10134;50.952;6.930;2023-04-07T00:11:10;9.30;99.90
19945;DHT22;10134;50.952;6.930;2023-04-07T00:13:37;9.30;99.90
19945;DHT22;10134;50.952;6.930;2023-04-07T00:16:04;9.30;99.90
19945;DHT22;10134;50.952;6.930;2023-04-07T00:18:32;9.30;99.90
19945;DHT22;10134;50.952;6.930;2023-04-07T00:20:59;9.30;99.90
19945;DHT22;10134;50.952;6.930;2023-04-07T00:23:27;9.30;99.90
19945;DHT22;10134;50.952;6.930;2023-04-07T00:25:54;9.20;99.90
19945;DHT22;10134;50.952;6.930;2023-04-07T00:28:21;9.30;99.90
19945;DHT22;10134;50.952;6.930;2023-04-07T00:30:49;9.30;99.90
19945;DHT22;10134;50.952;6.930;2023-04-07T00:33:16;9.30;99.90
19945;DHT22;10134;50.952;6.930;2023-04-07T00:35:44;9.30;99.90
19945;DHT22;10134;50.952;6.930;2023-04-07T00:38:12;9.30;99.90
19945;DHT22;10134;50.952;6.930;2023-04-07T00:40:39;9.30;99.90
19945;DHT22;10134;50.952;6.930;2023-04-07T00:43:07;9.30;99.90
19945;DHT22;10134;50.952;6.930;2023-04-07T00:45:35;9.30;99.90
19945;DHT22;10134;50.952;6.930;2023-04-07T00:48:03;9.30;99.90
19945;DHT22;10134;50.952;6.930;2023-04-07T00:50:32;9.30;99.90
19945;DHT22;10134;50.952;6.930;2023-04-07T00:52:59;9.30;99.90
19945;DHT22;10134;50.952;6.930;2023-04-07T00:55:28;9.30;99.90
19945;DHT22;10134;50.952;6.930;2023-04-07T00:57:55;9.30;99.90
19945;DHT22;10134;50.952;6.930;2023-04-07T01:00:25;9.20;99.90
19945;DHT22;10134;50.952;6.930;2023-04-07T01:03:09;9.20;99.90
19945;DHT22;10134;50.952;6.930;2023-04-07T01:08:16;9.30;99.90
19945;DHT22;10134;50.952;6.930;2023-04-07T01:11:04;9.20;99.90
19945;DHT22;10134;50.952;6.930;2023-04-07T01:13:40;9.30;99.90
19945;DHT22;10134;50.952;6.930;2023-04-07T01:16:54;9.30;99.90
19945;DHT22;10134;50.952;6.930;2023-04-07T01:19:36;9.30;99.90
19945;DHT22;10134;50.952;6.930;2023-04-07T01:22:20;9.20;99.90
19945;DHT22;10134;50.952;6.930;2023-04-07T01:25:16;9.20;99.90
19945;DHT22;10134;50.952;6.930;2023-04-07T01:30:31;9.20;99.90
19945;DHT22;10134;50.952;6.930;2023-04-07T01:32:59;9.30;99.90
19945;DHT22;10134;50.952;6.930;2023-04-07T01:35:30;9.30;99.90
19945;DHT22;10134;50.952;6.930;2023-04-07T01:37:59;9.30;99.90
19945;DHT22;10134;50.952;6.930;2023-04-07T01:40:27;9.30;99.90
19945;DHT22;10134;50.952;6.930;2023-04-07T01:42:59;9.30;99.90
19945;DHT22;10134;50.952;6.930;2023-04-07T01:45:28;9.30;99.90
19945;DHT22;10134;50.952;6.930;2023-04-07T01:47:56;9.30;99.90
19945;DHT22;10134;50.952;6.930;2023-04-07T01:50:24;9.30;99.90
19945;DHT22;10134;50.952;6.930;2023-04-07T01:52:52;9.30;99.90
19945;DHT22;10134;50.952;6.930;2023-04-07T01:55:20;9.30;99.90
19945;DHT22;10134;50.952;6.930;2023-04-07T01:57:57;9.30;99.90
19945;DHT22;10134;50.952;6.930;2023-04-07T02:00:24;9.30;99.90
19945;DHT22;10134;50.952;6.930;2023-04-07T02:02:58;9.40;99.90
19945;DHT22;10134;50.952;6.930;2023-04-07T02:05:32;9.40;99.90
19945;DHT22;10134;50.952;6.930;2023-04-07T02:08:04;9.40;99.90
19945;DHT22;10134;50.952;6.930;2023-04-07T02:10:36;9.40;99.90
19945;DHT22;10134;50.952;6.930;2023-04-07T02:13:06;9.40;99.90
19945;DHT22;10134;50.952;6.930;2023-04-07T02:15:35;9.40;99.90
19945;DHT22;10134;50.952;6.930;2023-04-07T02:18:04;9.40;99.90
19945;DHT22;10134;50.952;6.930;2023-04-07T02:20:34;9.40;99.90
19945;DHT22;10134;50.952;6.930;2023-04-07T02:23:03;9.40;99.90
19945;DHT22;10134;50.952;6.930;2023-04-07T02:25:31;9.40;99.90
19945;DHT22;10134;50.952;6.930;2023-04-07T02:27:59;9.40;99.90
19945;DHT22;10134;50.952;6.930;2023-04-07T02:30:27;9.40;99.90
19945;DHT22;10134;50.952;6.930;2023-04-07T02:32:55;9.40;99.90
19945;DHT22;10134;50.952;6.930;2023-04-07T02:35:23;9.40;99.90
19945;DHT22;10134;50.952;6.930;2023-04-07T02:37:50;9.40;99.90
19945;DHT22;10134;50.952;6.930;2023-04-07T02:40:17;9.40;99.90
19945;DHT22;10134;50.952;6.930;2023-04-07T02:42:45;9.50;99.90
19945;DHT22;10134;50.952;6.930;2023-04-07T02:45:13;9.50;99.90
19945;DHT22;10134;50.952;6.930;2023-04-07T02:47:41;9.50;99.90
19945;DHT22;10134;50.952;6.930;2023-04-07T02:50:08;9.50;99.90
19945;DHT22;10134;50.952;6.930;2023-04-07T02:52:36;9.50;99.90
19945;DHT22;10134;50.952;6.930;2023-04-07T02:55:10;9.50;99.90
19945;DHT22;10134;50.952;6.930;2023-04-07T02:57:37;9.50;99.90
19945;DHT22;10134;50.952;6.930;2023-04-07T03:00:09;9.50;99.90
19945;DHT22;10134;50.952;6.930;2023-04-07T03:03:03;9.50;99.90
19945;DHT22;10134;50.952;6.930;2023-04-07T03:05:34;9.50;99.90
19945;DHT22;10134;50.952;6.930;2023-04-07T03:08:02;9.50;99.90
19945;DHT22;10134;50.952;6.930;2023-04-07T03:10:30;9.50;99.90
19945;DHT22;10134;50.952;6.930;2023-04-07T03:12:57;9.50;99.90
19945;DHT22;10134;50.952;6.930;2023-04-07T03:15:25;9.50;99.90
19945;DHT22;10134;50.952;6.930;2023-04-07T03:17:53;9.60;99.90
19945;DHT22;10134;50.952;6.930;2023-04-07T03:20:20;9.60;99.90
19945;DHT22;10134;50.952;6.930;2023-04-07T03:22:48;9.50;99.90
19945;DHT22;10134;50.952;6.930;2023-04-07T03:25:21;9.60;99.90
19945;DHT22;10134;50.952;6.930;2023-04-07T03:27:50;9.60;99.90
19945;DHT22;10134;50.952;6.930;2023-04-07T03:30:19;9.50;99.90
19945;DHT22;10134;50.952;6.930;2023-04-07T03:32:46;9.50;99.90
19945;DHT22;10134;50.952;6.930;2023-04-07T03:35:13;9.50;99.90
19945;DHT22;10134;50.952;6.930;2023-04-07T03:37:43;9.60;99.90
19945;DHT22;10134;50.952;6.930;2023-04-07T03:40:15;9.60;99.90
19945;DHT22;10134;50.952;6.930;2023-04-07T03:42:44;9.60;99.90
19945;DHT22;10134;50.952;6.930;2023-04-07T03:45:13;9.60;99.90
19945;DHT22;10134;50.952;6.930;2023-04-07T03:47:45;9.60;99.90
19945;DHT22;10134;50.952;6.930;2023-04-07T03:50:14;9.60;99.90
19945;DHT22;10134;50.952;6.930;2023-04-07T03:53:02;9.50;99.90
19945;DHT22;10134;50.952;6.930;2023-04-07T03:55:32;9.60;99.90
19945;DHT22;10134;50.952;6.930;2023-04-07T03:58:07;9.60;99.90
19945;DHT22;10134;50.952;6.930;2023-04-07T04:00:36;9.60;99.90
19945;DHT22;10134;50.952;6.930;2023-04-07T04:03:07;9.60;99.90
19945;DHT22;10134;50.952;6.930;2023-04-07T04:05:42;9.50;99.90
19945;DHT22;10134;50.952;6.930;2023-04-07T04:08:15;9.50;99.90
19945;DHT22;10134;50.952;6.930;2023-04-07T04:10:42;9.50;99.90
19945;DHT22;10134;50.952;6.930;2023-04-07T04:13:09;9.50;99.90
19945;DHT22;10134;50.952;6.930;2023-04-07T04:15:37;9.50;99.90
19945;DHT22;10134;50.952;6.930;2023-04-07T04:18:08;9.50;99.90
19945;DHT22;10134;50.952;6.930;2023-04-07T04:20:36;9.50;99.90
19945;DHT22;10134;50.952;6.930;2023-04-07T04:23:06;9.50;99.90
19945;DHT22;10134;50.952;6.930;2023-04-07T04:25:35;9.50;99.90
19945;DHT22;10134;50.952;6.930;2023-04-07T04:28:07;9.50;99.90
19945;DHT22;10134;50.952;6.930;2023-04-07T04:30:35;9.50;99.90
19945;DHT22;10134;50.952;6.930;2023-04-07T04:33:03;9.50;99.90
19945;DHT22;10134;50.952;6.930;2023-04-07T04:35:36;9.50;99.90
19945;DHT22;10134;50.952;6.930;2023-04-07T04:38:09;9.40;99.90
19945;DHT22;10134;50.952;6.930;2023-04-07T04:40:41;9.40;99.90
19945;DHT22;10134;50.952;6.930;2023-04-07T04:43:08;9.40;99.90
19945;DHT22;10134;50.952;6.930;2023-04-07T04:45:38;9.40;99.90
19945;DHT22;10134;50.952;6.930;2023-04-07T04:48:08;9.40;99.90
19945;DHT22;10134;50.952;6.930;2023-04-07T04:50:35;9.40;99.90
19945;DHT22;10134;50.952;6.930;2023-04-07T04:53:08;9.40;99.90
19945;DHT22;10134;50.952;6.930;2023-04-07T04:55:43;9.40;99.90
19945;DHT22;10134;50.952;6.930;2023-04-07T04:58:19;9.40;99.90
19945;DHT22;10134;50.952;6.930;2023-04-07T05:00:53;9.40;99.90
19945;DHT22;10134;50.952;6.930;2023-04-07T05:03:29;9.40;99.90
19945;DHT22;10134;50.952;6.930;2023-04-07T05:06:00;9.40;99.90
19945;DHT22;10134;50.952;6.930;2023-04-07T05:08:27;9.40;99.90
19945;DHT22;10134;50.952;6.930;2023-04-07T05:10:56;9.40;99.90
19945;DHT22;10134;50.952;6.930;2023-04-07T05:13:26;9.40;99.90
19945;DHT22;10134;50.952;6.930;2023-04-07T05:15:59;9.40;99.90
19945;DHT22;10134;50.952;6.930;2023-04-07T05:18:28;9.40;99.90
19945;DHT22;10134;50.952;6.930;2023-04-07T05:20:56;9.40;99.90
19945;DHT22;10134;50.952;6.930;2023-04-07T05:23:25;9.40;99.90
19945;DHT22;10134;50.952;6.930;2023-04-07T05:25:52;9.40;99.90
19945;DHT22;10134;50.952;6.930;2023-04-07T05:28:19;9.40;99.90
19945;DHT22;10134;50.952;6.930;2023-04-07T05:30:48;9.40;99.90
19945;DHT22;10134;50.952;6.930;2023-04-07T05:33:15;9.40;99.90
19945;DHT22;10134;50.952;6.930;2023-04-07T05:35:48;9.40;99.90
19945;DHT22;10134;50.952;6.930;2023-04-07T05:38:16;9.40;99.90
19945;DHT22;10134;50.952;6.930;2023-04-07T05:40:45;9.30;99.90
19945;DHT22;10134;50.952;6.930;2023-04-07T05:43:19;9.30;99.90
19945;DHT22;10134;50.952;6.930;2023-04-07T05:45:48;9.30;99.90
19945;DHT22;10134;50.952;6.930;2023-04-07T05:48:15;9.30;99.90
19945;DHT22;10134;50.952;6.930;2023-04-07T05:50:45;9.30;99.90
19945;DHT22;10134;50.952;6.930;2023-04-07T05:53:16;9.30;99.90
19945;DHT22;10134;50.952;6.930;2023-04-07T05:55:43;9.30;99.90
19945;DHT22;10134;50.952;6.930;2023-04-07T05:58:43;9.30;99.90
19945;DHT22;10134;50.952;6.930;2023-04-07T06:01:11;9.30;99.90
19945;DHT22;10134;50.952;6.930;2023-04-07T06:03:39;9.30;99.90
19945;DHT22;10134;50.952;6.930;2023-04-07T06:06:13;9.30;99.90
19945;DHT22;10134;50.952;6.930;2023-04-07T06:08:41;9.30;99.90
19945;DHT22;10134;50.952;6.930;2023-04-07T06:11:08;9.30;99.90
19945;DHT22;10134;50.952;6.930;2023-04-07T06:13:35;9.30;99.90
19945;DHT22;10134;50.952;6.930;2023-04-07T06:16:04;9.30;99.90
19945;DHT22;10134;50.952;6.930;2023-04-07T06:18:32;9.30;99.90
19945;DHT22;10134;50.952;6.930;2023-04-07T06:20:59;9.30;99.90
19945;DHT22;10134;50.952;6.930;2023-04-07T06:23:27;9.30;99.90
19945;DHT22;10134;50.952;6.930;2023-04-07T06:25:54;9.30;99.90
19945;DHT22;10134;50.952;6.930;2023-04-07T06:28:22;9.30;99.90
19945;DHT22;10134;50.952;6.930;2023-04-07T06:30:49;9.30;99.90
19945;DHT22;10134;50.952;6.930;2023-04-07T06:33:17;9.30;99.90
19945;DHT22;10134;50.952;6.930;2023-04-07T06:35:44;9.30;99.90
19945;DHT22;10134;50.952;6.930;2023-04-07T06:38:12;9.30;99.90
19945;DHT22;10134;50.952;6.930;2023-04-07T06:40:39;9.30;99.90
19945;DHT22;10134;50.952;6.930;2023-04-07T06:43:07;9.30;99.90
19945;DHT22;10134;50.952;6.930;2023-04-07T06:45:42;9.30;99.90
19945;DHT22;10134;50.952;6.930;2023-04-07T06:48:09;9.30;99.90
19945;DHT22;10134;50.952;6.930;2023-04-07T06:50:37;9.20;99.90
19945;DHT22;10134;50.952;6.930;2023-04-07T06:53:04;9.20;99.90
19945;DHT22;10134;50.952;6.930;2023-04-07T06:55:32;9.30;99.90
19945;DHT22;10134;50.952;6.930;2023-04-07T06:57:59;9.30;99.90
19945;DHT22;10134;50.952;6.930;2023-04-07T07:00:26;9.30;99.90
19945;DHT22;10134;50.952;6.930;2023-04-07T07:02:56;9.30;99.90
19945;DHT22;10134;50.952;6.930;2023-04-07T07:05:23;9.30;99.90
19945;DHT22;10134;50.952;6.930;2023-04-07T07:07:51;9.30;99.90
19945;DHT22;10134;50.952;6.930;2023-04-07T07:10:19;9.40;99.90
19945;DHT22;10134;50.952;6.930;2023-04-07T07:12:46;9.40;99.90
19945;DHT22;10134;50.952;6.930;2023-04-07T07:15:14;9.30;99.90
19945;DHT22;10134;50.952;6.930;2023-04-07T07:17:41;9.40;99.90
19945;DHT22;10134;50.952;6.930;2023-04-07T07:20:09;9.40;99.90
19945;DHT22;10134;50.952;6.930;2023-04-07T07:22:37;9.40;99.90
19945;DHT22;10134;50.952;6.930;2023-04-07T07:25:04;9.40;99.90
19945;DHT22;10134;50.952;6.930;2023-04-07T07:27:31;9.40;99.90
19945;DHT22;10134;50.952;6.930;2023-04-07T07:29:59;9.40;99.90
19945;DHT22;10134;50.952;6.930;2023-04-07T07:32:26;9.40;99.90
19945;DHT22;10134;50.952;6.930;2023-04-07T07:34:53;9.40;99.90
19945;DHT22;10134;50.952;6.930;2023-04-07T07:37:21;9.50;99.90
19945;DHT22;10134;50.952;6.930;2023-04-07T07:39:48;9.50;99.90
19945;DHT22;10134;50.952;6.930;2023-04-07T07:42:15;9.50;99.90
19945;DHT22;10134;50.952;6.930;2023-04-07T07:44:43;9.50;99.90
19945;DHT22;10134;50.952;6.930;2023-04-07T07:47:10;9.50;99.90
19945;DHT22;10134;50.952;6.930;2023-04-07T07:49:38;9.50;99.90
19945;DHT22;10134;50.952;6.930;2023-04-07T07:52:05;9.60;99.90
19945;DHT22;10134;50.952;6.930;2023-04-07T07:54:36;9.60;99.90
19945;DHT22;10134;50.952;6.930;2023-04-07T07:57:03;9.70;99.90
19945;DHT22;10134;50.952;6.930;2023-04-07T07:59:32;9.70;99.90
19945;DHT22;10134;50.952;6.930;2023-04-07T08:01:59;9.70;99.90
19945;DHT22;10134;50.952;6.930;2023-04-07T08:04:26;9.80;99.90
19945;DHT22;10134;50.952;6.930;2023-04-07T08:06:54;9.80;99.90
19945;DHT22;10134;50.952;6.930;2023-04-07T08:09:22;9.90;99.90
19945;DHT22;10134;50.952;6.930;2023-04-07T08:11:49;9.90;99.90
19945;DHT22;10134;50.952;6.930;2023-04-07T08:14:17;9.90;99.90
19945;DHT22;10134;50.952;6.930;2023-04-07T08:16:45;9.90;99.90
19945;DHT22;10134;50.952;6.930;2023-04-07T08:19:12;10.00;99.90
19945;DHT22;10134;50.952;6.930;2023-04-07T08:21:40;9.90;99.90
19945;DHT22;10134;50.952;6.930;2023-04-07T08:24:08;9.90;99.90
19945;DHT22;10134;50.952;6.930;2023-04-07T08:26:36;9.90;99.90
19945;DHT22;10134;50.952;6.930;2023-04-07T08:29:03;10.00;99.90
19945;DHT22;10134;50.952;6.930;2023-04-07T08:31:30;10.00;99.90
19945;DHT22;10134;50.952;6.930;2023-04-07T08:33:58;10.10;99.90
19945;DHT22;10134;50.952;6.930;2023-04-07T08:36:25;10.10;99.90
19945;DHT22;10134;50.952;6.930;2023-04-07T08:38:54;10.10;99.90
19945;DHT22;10134;50.952;6.930;2023-04-07T08:41:41;10.10;99.90
19945;DHT22;10134;50.952;6.930;2023-04-07T08:44:12;10.20;99.90
19945;DHT22;10134;50.952;6.930;2023-04-07T08:46:41;10.20;99.90
19945;DHT22;10134;50.952;6.930;2023-04-07T08:49:10;10.20;99.90
19945;DHT22;10134;50.952;6.930;2023-04-07T08:51:46;10.20;99.90
19945;DHT22;10134;50.952;6.930;2023-04-07T08:54:16;10.30;99.90
19945;DHT22;10134;50.952;6.930;2023-04-07T08:56:45;10.30;99.90
19945;DHT22;10134;50.952;6.930;2023-04-07T08:59:14;10.40;99.90
19945;DHT22;10134;50.952;6.930;2023-04-07T09:01:42;10.40;99.90
19945;DHT22;10134;50.952;6.930;2023-04-07T09:04:10;10.40;99.90
19945;DHT22;10134;50.952;6.930;2023-04-07T09:06:37;10.40;99.90
19945;DHT22;10134;50.952;6.930;2023-04-07T09:09:04;10.40;99.90
19945;DHT22;10134;50.952;6.930;2023-04-07T09:11:38;10.40;99.90
19945;DHT22;10134;50.952;6.930;2023-04-07T09:14:06;10.40;99.90
19945;DHT22;10134;50.952;6.930;2023-04-07T09:16:34;10.40;99.90
19945;DHT22;10134;50.952;6.930;2023-04-07T09:19:01;10.40;99.90
19945;DHT22;10134;50.952;6.930;2023-04-07T09:21:48;10.40;99.90
19945;DHT22;10134;50.952;6.930;2023-04-07T09:24:28;10.50;99.90
19945;DHT22;10134;50.952;6.930;2023-04-07T09:29:37;10.50;99.90
19945;DHT22;10134;50.952;6.930;2023-04-07T09:32:05;10.50;99.90
19945;DHT22;10134;50.952;6.930;2023-04-07T09:34:37;10.50;99.90
19945;DHT22;10134;50.952;6.930;2023-04-07T09:37:07;10.50;99.90
19945;DHT22;10134;50.952;6.930;2023-04-07T09:39:51;10.60;99.90
19945;DHT22;10134;50.952;6.930;2023-04-07T09:42:20;10.60;99.90
19945;DHT22;10134;50.952;6.930;2023-04-07T09:44:48;10.60;99.90
19945;DHT22;10134;50.952;6.930;2023-04-07T09:47:16;10.60;99.90
19945;DHT22;10134;50.952;6.930;2023-04-07T09:49:52;10.60;99.90
19945;DHT22;10134;50.952;6.930;2023-04-07T09:52:24;10.60;99.90
19945;DHT22;10134;50.952;6.930;2023-04-07T09:54:53;10.70;99.90
19945;DHT22;10134;50.952;6.930;2023-04-07T09:57:22;10.70;99.90
19945;DHT22;10134;50.952;6.930;2023-04-07T09:59:51;10.70;99.90
19945;DHT22;10134;50.952;6.930;2023-04-07T10:02:20;10.80;99.90
19945;DHT22;10134;50.952;6.930;2023-04-07T10:04:49;10.80;99.90
19945;DHT22;10134;50.952;6.930;2023-04-07T10:07:16;10.80;99.90
19945;DHT22;10134;50.952;6.930;2023-04-07T10:09:44;10.80;99.90
19945;DHT22;10134;50.952;6.930;2023-04-07T10:12:11;10.80;99.90
19945;DHT22;10134;50.952;6.930;2023-04-07T10:14:39;10.80;99.90
19945;DHT22;10134;50.952;6.930;2023-04-07T10:17:06;10.70;99.90
19945;DHT22;10134;50.952;6.930;2023-04-07T10:19:35;10.80;99.90
19945;DHT22;10134;50.952;6.930;2023-04-07T10:22:02;10.70;99.90
19945;DHT22;10134;50.952;6.930;2023-04-07T10:24:59;10.70;99.90
19945;DHT22;10134;50.952;6.930;2023-04-07T10:27:31;10.70;99.90
19945;DHT22;10134;50.952;6.930;2023-04-07T10:30:00;10.80;99.90
19945;DHT22;10134;50.952;6.930;2023-04-07T10:32:30;10.80;99.90
19945;DHT22;10134;50.952;6.930;2023-04-07T10:34:58;10.80;99.90
19945;DHT22;10134;50.952;6.930;2023-04-07T10:37:27;10.90;99.90
19945;DHT22;10134;50.952;6.930;2023-04-07T10:42:47;11.00;99.90
19945;DHT22;10134;50.952;6.930;2023-04-07T10:45:14;11.00;99.90
19945;DHT22;10134;50.952;6.930;2023-04-07T10:50:25;10.90;99.90
19945;DHT22;10134;50.952;6.930;2023-04-07T10:53:07;10.90;99.90
19945;DHT22;10134;50.952;6.930;2023-04-07T10:55:39;10.90;99.90
19945;DHT22;10134;50.952;6.930;2023-04-07T10:58:25;10.80;99.90
19945;DHT22;10134;50.952;6.930;2023-04-07T11:03:39;10.80;99.90
19945;DHT22;10134;50.952;6.930;2023-04-07T11:08:41;10.80;99.90
19945;DHT22;10134;50.952;6.930;2023-04-07T11:11:13;10.80;99.90
19945;DHT22;10134;50.952;6.930;2023-04-07T11:13:48;10.70;99.90
19945;DHT22;10134;50.952;6.930;2023-04-07T11:16:42;10.70;99.90
19945;DHT22;10134;50.952;6.930;2023-04-07T11:19:11;10.80;99.90
19945;DHT22;10134;50.952;6.930;2023-04-07T11:21:38;10.80;99.90
19945;DHT22;10134;50.952;6.930;2023-04-07T11:24:06;10.90;99.90
19945;DHT22;10134;50.952;6.930;2023-04-07T11:26:38;11.00;99.90
19945;DHT22;10134;50.952;6.930;2023-04-07T11:29:05;11.00;99.90
19945;DHT22;10134;50.952;6.930;2023-04-07T11:31:33;11.10;99.90
19945;DHT22;10134;50.952;6.930;2023-04-07T11:34:02;11.20;99.90
19945;DHT22;10134;50.952;6.930;2023-04-07T11:36:36;11.20;99.90
19945;DHT22;10134;50.952;6.930;2023-04-07T11:39:04;11.30;99.90
19945;DHT22;10134;50.952;6.930;2023-04-07T11:41:32;11.30;99.90
19945;DHT22;10134;50.952;6.930;2023-04-07T11:44:10;11.30;99.90
19945;DHT22;10134;50.952;6.930;2023-04-07T11:46:54;11.40;99.90
19945;DHT22;10134;50.952;6.930;2023-04-07T11:49:24;11.40;99.90
19945;DHT22;10134;50.952;6.930;2023-04-07T11:52:03;11.40;99.90
19945;DHT22;10134;50.952;6.930;2023-04-07T11:57:08;11.40;99.90
19945;DHT22;10134;50.952;6.930;2023-04-07T11:59:40;11.50;99.90
19945;DHT22;10134;50.952;6.930;2023-04-07T12:02:07;11.50;99.90
19945;DHT22;10134;50.952;6.930;2023-04-07T12:04:36;11.50;99.90
19945;DHT22;10134;50.952;6.930;2023-04-07T12:07:08;11.50;99.90
19945;DHT22;10134;50.952;6.930;2023-04-07T12:09:36;11.60;99.90
19945;DHT22;10134;50.952;6.930;2023-04-07T12:12:05;11.70;99.90
19945;DHT22;10134;50.952;6.930;2023-04-07T12:14:34;11.70;99.90
19945;DHT22;10134;50.952;6.930;2023-04-07T12:17:02;11.80;99.90
19945;DHT22;10134;50.952;6.930;2023-04-07T12:19:31;11.80;99.90
19945;DHT22;10134;50.952;6.930;2023-04-07T12:22:02;11.80;99.90
19945;DHT22;10134;50.952;6.930;2023-04-07T12:24:30;11.90;99.90
19945;DHT22;10134;50.952;6.930;2023-04-07T12:26:58;12.00;99.90
19945;DHT22;10134;50.952;6.930;2023-04-07T12:29:26;12.00;99.90
19945;DHT22;10134;50.952;6.930;2023-04-07T12:31:54;12.10;99.90
19945;DHT22;10134;50.952;6.930;2023-04-07T12:34:22;12.20;99.90
19945;DHT22;10134;50.952;6.930;2023-04-07T12:36:50;12.20;99.90
19945;DHT22;10134;50.952;6.930;2023-04-07T12:39:18;12.20;99.90
19945;DHT22;10134;50.952;6.930;2023-04-07T12:41:45;12.30;99.90
19945;DHT22;10134;50.952;6.930;2023-04-07T12:44:15;12.30;99.90
19945;DHT22;10134;50.952;6.930;2023-04-07T12:46:42;12.30;99.90
19945;DHT22;10134;50.952;6.930;2023-04-07T12:49:10;12.30;99.90
19945;DHT22;10134;50.952;6.930;2023-04-07T12:51:37;12.30;99.90
19945;DHT22;10134;50.952;6.930;2023-04-07T12:54:06;12.20;99.90
19945;DHT22;10134;50.952;6.930;2023-04-07T12:56:33;12.20;99.90
19945;DHT22;10134;50.952;6.930;2023-04-07T12:59:01;12.20;99.90
19945;DHT22;10134;50.952;6.930;2023-04-07T13:01:32;12.10;99.90
19945;DHT22;10134;50.952;6.930;2023-04-07T13:04:02;12.00;99.90
19945;DHT22;10134;50.952;6.930;2023-04-07T13:06:32;12.00;99.90
19945;DHT22;10134;50.952;6.930;2023-04-07T13:09:00;12.00;99.90
19945;DHT22;10134;50.952;6.930;2023-04-07T13:11:27;11.90;99.90
19945;DHT22;10134;50.952;6.930;2023-04-07T13:13:54;11.90;99.90
19945;DHT22;10134;50.952;6.930;2023-04-07T13:16:25;11.90;99.90
19945;DHT22;10134;50.952;6.930;2023-04-07T13:18:52;12.00;99.90
19945;DHT22;10134;50.952;6.930;2023-04-07T13:21:20;12.00;99.90
19945;DHT22;10134;50.952;6.930;2023-04-07T13:24:09;12.00;99.90
19945;DHT22;10134;50.952;6.930;2023-04-07T13:26:39;12.00;99.90
19945;DHT22;10134;50.952;6.930;2023-04-07T13:29:06;12.00;99.90
19945;DHT22;10134;50.952;6.930;2023-04-07T13:31:33;12.00;99.90
19945;DHT22;10134;50.952;6.930;2023-04-07T13:34:01;12.10;99.90
19945;DHT22;10134;50.952;6.930;2023-04-07T13:36:28;12.10;99.90
19945;DHT22;10134;50.952;6.930;2023-04-07T13:38:56;12.10;99.90
19945;DHT22;10134;50.952;6.930;2023-04-07T13:41:23;12.20;99.90
19945;DHT22;10134;50.952;6.930;2023-04-07T13:43:52;12.30;99.90
19945;DHT22;10134;50.952;6.930;2023-04-07T13:46:20;12.40;99.90
19945;DHT22;10134;50.952;6.930;2023-04-07T13:48:55;12.50;99.90
19945;DHT22;10134;50.952;6.930;2023-04-07T13:51:23;12.50;99.90
19945;DHT22;10134;50.952;6.930;2023-04-07T13:53:50;12.60;99.90
19945;DHT22;10134;50.952;6.930;2023-04-07T13:56:18;12.70;99.90
19945;DHT22;10134;50.952;6.930;2023-04-07T13:58:45;12.70;99.90
19945;DHT22;10134;50.952;6.930;2023-04-07T14:01:14;12.70;99.90
19945;DHT22;10134;50.952;6.930;2023-04-07T14:03:41;12.70;99.90
19945;DHT22;10134;50.952;6.930;2023-04-07T14:06:09;12.80;99.90
19945;DHT22;10134;50.952;6.930;2023-04-07T14:08:36;12.90;99.90
19945;DHT22;10134;50.952;6.930;2023-04-07T14:11:04;12.90;99.90
19945;DHT22;10134;50.952;6.930;2023-04-07T14:13:31;13.00;99.90
19945;DHT22;10134;50.952;6.930;2023-04-07T14:15:58;13.00;99.90
19945;DHT22;10134;50.952;6.930;2023-04-07T14:18:26;13.10;99.90
19945;DHT22;10134;50.952;6.930;2023-04-07T14:20:54;13.10;99.90
19945;DHT22;10134;50.952;6.930;2023-04-07T14:23:21;13.10;99.90
19945;DHT22;10134;50.952;6.930;2023-04-07T14:26:03;13.10;99.90
19945;DHT22;10134;50.952;6.930;2023-04-07T14:28:30;13.00;99.90
19945;DHT22;10134;50.952;6.930;2023-04-07T14:30:58;13.00;99.90
19945;DHT22;10134;50.952;6.930;2023-04-07T14:33:25;12.90;99.90
19945;DHT22;10134;50.952;6.930;2023-04-07T14:35:52;12.80;99.90
19945;DHT22;10134;50.952;6.930;2023-04-07T14:38:20;12.70;99.90
19945;DHT22;10134;50.952;6.930;2023-04-07T14:40:51;12.60;99.90
19945;DHT22;10134;50.952;6.930;2023-04-07T14:43:19;12.60;99.90
19945;DHT22;10134;50.952;6.930;2023-04-07T14:45:46;12.60;99.90
19945;DHT22;10134;50.952;6.930;2023-04-07T14:48:14;12.60;99.90
19945;DHT22;10134;50.952;6.930;2023-04-07T14:50:43;12.60;99.90
19945;DHT22;10134;50.952;6.930;2023-04-07T14:53:10;12.60;99.90
19945;DHT22;10134;50.952;6.930;2023-04-07T14:55:38;12.50;99.90
19945;DHT22;10134;50.952;6.930;2023-04-07T14:58:07;12.50;99.90
19945;DHT22;10134;50.952;6.930;2023-04-07T15:00:35;12.50;99.90
19945;DHT22;10134;50.952;6.930;2023-04-07T15:03:02;12.50;99.90
19945;DHT22;10134;50.952;6.930;2023-04-07T15:05:31;12.50;99.90
19945;DHT22;10134;50.952;6.930;2023-04-07T15:07:59;12.50;99.90
19945;DHT22;10134;50.952;6.930;2023-04-07T15:10:26;12.50;99.90
19945;DHT22;10134;50.952;6.930;2023-04-07T15:12:53;12.60;99.90
19945;DHT22;10134;50.952;6.930;2023-04-07T15:15:21;12.70;99.90
19945;DHT22;10134;50.952;6.930;2023-04-07T15:17:48;12.90;99.90
19945;DHT22;10134;50.952;6.930;2023-04-07T15:20:15;13.10;99.90
19945;DHT22;10134;50.952;6.930;2023-04-07T15:22:43;13.30;99.90
19945;DHT22;10134;50.952;6.930;2023-04-07T15:25:10;13.30;99.90
19945;DHT22;10134;50.952;6.930;2023-04-07T15:27:37;13.40;99.90
19945;DHT22;10134;50.952;6.930;2023-04-07T15:30:05;13.40;99.90
19945;DHT22;10134;50.952;6.930;2023-04-07T15:32:32;13.30;99.90
19945;DHT22;10134;50.952;6.930;2023-04-07T15:35:00;13.30;99.90
19945;DHT22;10134;50.952;6.930;2023-04-07T15:37:27;13.20;99.90
19945;DHT22;10134;50.952;6.930;2023-04-07T15:39:54;13.10;99.90
19945;DHT22;10134;50.952;6.930;2023-04-07T15:42:22;13.10;99.90
19945;DHT22;10134;50.952;6.930;2023-04-07T15:44:49;13.00;99.90
19945;DHT22;10134;50.952;6.930;2023-04-07T15:47:16;13.00;99.90
19945;DHT22;10134;50.952;6.930;2023-04-07T15:49:44;13.00;99.90
19945;DHT22;10134;50.952;6.930;2023-04-07T15:52:12;12.90;99.90
19945;DHT22;10134;50.952;6.930;2023-04-07T15:54:40;12.90;99.90
19945;DHT22;10134;50.952;6.930;2023-04-07T15:57:07;13.00;99.90
19945;DHT22;10134;50.952;6.930;2023-04-07T15:59:34;13.00;99.90
19945;DHT22;10134;50.952;6.930;2023-04-07T16:02:02;13.00;99.90
19945;DHT22;10134;50.952;6.930;2023-04-07T16:04:29;13.10;99.90
19945;DHT22;10134;50.952;6.930;2023-04-07T16:06:57;13.10;99.90
19945;DHT22;10134;50.952;6.930;2023-04-07T16:09:24;13.10;99.90
19945;DHT22;10134;50.952;6.930;2023-04-07T16:11:52;13.00;99.90
19945;DHT22;10134;50.952;6.930;2023-04-07T16:14:19;13.10;99.90
19945;DHT22;10134;50.952;6.930;2023-04-07T16:16:46;13.10;99.90